Terminal Aerodrome Forecast
Issued by NWS

Home | Current Version | Previous Version | Text Only | Print | Product List | Glossary On
Versions: 1 2 3 4 5 6 7 8 9 10 11 12 13 14
000
FTUS46 KMTR 182339
TAFOAK
TAF
KOAK 182339Z 1900/2006 14024G33KT P6SM -RA BKN030 BKN040 OVC050
      WS020/17055KT
     FM190500 19018G25KT P6SM -SHRA OVC050
     FM191200 19010KT P6SM VCSH OVC030
     FM191600 18010KT P6SM -SHRA OVC035
     FM192100 25012KT P6SM BKN035 OVC050
     FM200300 24010KT P6SM BKN050=

USA.gov is the U.S. government's official web portal to all federal, state and local government web resources and services.